sensor_id;sensor_type;location;lat;lon;timestamp;pressure;altitude;pressure_sealevel;temperature;humidity
71059;BME280;70265;47.576;19.270;2023-05-19T13:18:52;99435.78;;;20.72;85.67
71059;BME280;70265;47.576;19.270;2023-05-19T13:19:56;99441.53;;;20.69;83.70
71059;BME280;70265;47.576;19.270;2023-05-19T13:20:57;99441.09;;;20.59;81.82
71059;BME280;70265;47.576;19.270;2023-05-19T13:22:01;99441.50;;;20.56;80.22
71059;BME280;70265;47.576;19.270;2023-05-19T13:23:03;99434.31;;;20.50;79.27
71059;BME280;70265;47.576;19.270;2023-05-19T13:24:07;99429.00;;;20.50;78.49
71059;BME280;70265;47.576;19.270;2023-05-19T13:25:09;99430.22;;;20.54;77.64
71059;BME280;70265;47.576;19.270;2023-05-19T13:26:13;99432.25;;;20.46;77.18
71059;BME280;70265;47.576;19.270;2023-05-19T13:27:17;99428.75;;;20.45;76.91
71059;BME280;70265;47.576;19.270;2023-05-19T13:28:18;99424.69;;;20.49;76.80
71059;BME280;70265;47.576;19.270;2023-05-19T13:29:21;99431.25;;;20.53;76.11
71059;BME280;70265;47.576;19.270;2023-05-19T13:30:55;99422.66;;;20.58;75.40
71059;BME280;70265;47.576;19.270;2023-05-19T13:32:01;99424.50;;;20.57;75.34
71059;BME280;70265;47.576;19.270;2023-05-19T13:33:02;99428.00;;;20.64;74.83
71059;BME280;70265;47.576;19.270;2023-05-19T13:34:05;99425.34;;;20.71;74.06
71059;BME280;70265;47.576;19.270;2023-05-19T13:35:10;99424.50;;;20.70;74.01
71059;BME280;70265;47.576;19.270;2023-05-19T15:51:40;99343.13;;;21.65;72.14
71059;BME280;70265;47.576;19.270;2023-05-19T15:55:39;99342.59;;;21.88;73.49
71059;BME280;70265;47.576;19.270;2023-05-19T15:56:43;99344.66;;;21.92;73.36
71059;BME280;70265;47.576;19.270;2023-05-19T15:58:43;99353.25;;;22.01;73.87
71059;BME280;70265;47.576;19.270;2023-05-19T15:59:47;99342.78;;;21.99;73.96
71059;BME280;70265;47.576;19.270;2023-05-19T16:00:51;99352.63;;;21.99;74.14
71059;BME280;70265;47.576;19.270;2023-05-19T16:01:53;99346.28;;;22.00;74.55
71059;BME280;70265;47.576;19.270;2023-05-19T16:02:56;99347.09;;;22.00;74.35
71059;BME280;70265;47.576;19.270;2023-05-19T16:03:57;99343.38;;;22.01;74.42
71059;BME280;70265;47.576;19.270;2023-05-19T16:05:06;99345.00;;;22.02;74.24
71059;BME280;70265;47.576;19.270;2023-05-19T16:06:07;99342.97;;;22.04;74.46
71059;BME280;70265;47.576;19.270;2023-05-19T16:07:12;99347.06;;;22.07;74.65
71059;BME280;70265;47.576;19.270;2023-05-19T16:08:13;99344.16;;;22.08;74.62
71059;BME280;70265;47.576;19.270;2023-05-19T16:09:16;99350.13;;;22.10;74.48
71059;BME280;70265;47.576;19.270;2023-05-19T16:10:17;99347.44;;;22.10;74.74
71059;BME280;70265;47.576;19.270;2023-05-19T16:11:21;99349.88;;;22.12;74.64
71059;BME280;70265;47.576;19.270;2023-05-19T16:12:22;99356.44;;;22.16;74.60
71059;BME280;70265;47.576;19.270;2023-05-19T16:13:27;99351.94;;;22.16;74.71
71059;BME280;70265;47.576;19.270;2023-05-19T16:14:32;99352.31;;;22.20;74.84
71059;BME280;70265;47.576;19.270;2023-05-19T16:15:37;99352.91;;;22.22;74.75
71059;BME280;70265;47.576;19.270;2023-05-19T16:16:38;99358.06;;;22.23;74.51
71059;BME280;70265;47.576;19.270;2023-05-19T16:17:42;99357.63;;;22.26;74.44
71059;BME280;70265;47.576;19.270;2023-05-19T16:18:43;99361.94;;;22.27;74.48
71059;BME280;70265;47.576;19.270;2023-05-19T16:19:46;99356.59;;;22.27;74.18
71059;BME280;70265;47.576;19.270;2023-05-19T16:20:47;99364.63;;;22.27;74.52
71059;BME280;70265;47.576;19.270;2023-05-19T16:21:52;99358.00;;;22.30;74.47
71059;BME280;70265;47.576;19.270;2023-05-19T16:22:53;99363.16;;;22.31;74.58
71059;BME280;70265;47.576;19.270;2023-05-19T16:25:48;99377.94;;;20.73;69.05
71059;BME280;70265;47.576;19.270;2023-05-19T16:26:52;99381.44;;;20.54;69.39
71059;BME280;70265;47.576;19.270;2023-05-19T16:27:53;99387.56;;;20.41;69.54
71059;BME280;70265;47.576;19.270;2023-05-19T16:28:57;99384.66;;;20.29;69.52
71059;BME280;70265;47.576;19.270;2023-05-19T16:29:58;99376.22;;;20.26;71.44
71059;BME280;70265;47.576;19.270;2023-05-19T16:31:03;99379.28;;;20.16;71.45
71059;BME280;70265;47.576;19.270;2023-05-19T16:32:05;99379.69;;;20.13;71.01
71059;BME280;70265;47.576;19.270;2023-05-19T16:33:08;99381.09;;;20.03;73.63
71059;BME280;70265;47.576;19.270;2023-05-19T16:34:12;99380.88;;;20.04;72.36
71059;BME280;70265;47.576;19.270;2023-05-19T16:35:20;99380.44;;;20.01;73.37
71059;BME280;70265;47.576;19.270;2023-05-19T16:36:21;99384.56;;;19.97;73.40
71059;BME280;70265;47.576;19.270;2023-05-19T16:37:25;99377.38;;;19.97;72.84
71059;BME280;70265;47.576;19.270;2023-05-19T16:38:26;99382.50;;;19.92;73.58
71059;BME280;70265;47.576;19.270;2023-05-19T16:39:30;99383.91;;;19.95;73.79
71059;BME280;70265;47.576;19.270;2023-05-19T16:40:31;99381.25;;;19.88;74.11
71059;BME280;70265;47.576;19.270;2023-05-19T16:41:37;99383.50;;;19.91;73.03
71059;BME280;70265;47.576;19.270;2023-05-19T16:42:38;99382.88;;;19.89;73.61
71059;BME280;70265;47.576;19.270;2023-05-19T16:43:42;99381.63;;;19.85;75.18
71059;BME280;70265;47.576;19.270;2023-05-19T16:44:43;99379.16;;;19.83;73.57
71059;BME280;70265;47.576;19.270;2023-05-19T16:45:47;99375.06;;;19.81;74.23
71059;BME280;70265;47.576;19.270;2023-05-19T16:46:48;99372.63;;;19.79;75.39
71059;BME280;70265;47.576;19.270;2023-05-19T16:47:51;99382.84;;;19.76;76.01
71059;BME280;70265;47.576;19.270;2023-05-19T16:48:53;99377.91;;;19.73;76.25
71059;BME280;70265;47.576;19.270;2023-05-19T16:49:56;99378.28;;;19.70;76.73
71059;BME280;70265;47.576;19.270;2023-05-19T16:51:00;99374.41;;;19.66;76.69
71059;BME280;70265;47.576;19.270;2023-05-19T16:52:01;99379.09;;;19.64;78.58
71059;BME280;70265;47.576;19.270;2023-05-19T16:53:05;99381.13;;;19.62;78.27
71059;BME280;70265;47.576;19.270;2023-05-19T16:54:06;99376.22;;;19.59;78.98
71059;BME280;70265;47.576;19.270;2023-05-19T16:55:10;99378.22;;;19.57;79.84
71059;BME280;70265;47.576;19.270;2023-05-19T16:56:11;99373.72;;;19.57;80.25
71059;BME280;70265;47.576;19.270;2023-05-19T16:57:17;99375.34;;;19.52;81.16
71059;BME280;70265;47.576;19.270;2023-05-19T16:58:21;99377.97;;;19.45;81.85
71059;BME280;70265;47.576;19.270;2023-05-19T16:59:22;99374.22;;;19.40;83.46
71059;BME280;70265;47.576;19.270;2023-05-19T17:00:30;99382.16;;;19.33;85.11
71059;BME280;70265;47.576;19.270;2023-05-19T17:01:31;99368.44;;;19.29;85.83
71059;BME280;70265;47.576;19.270;2023-05-19T17:02:35;99373.13;;;19.27;86.42
71059;BME280;70265;47.576;19.270;2023-05-19T17:03:36;99380.81;;;19.16;89.82
71059;BME280;70265;47.576;19.270;2023-05-19T17:04:40;99373.03;;;19.08;91.92
71059;BME280;70265;47.576;19.270;2023-05-19T17:05:41;99378.09;;;19.03;92.27
71059;BME280;70265;47.576;19.270;2023-05-19T17:06:45;99381.56;;;19.03;92.78
71059;BME280;70265;47.576;19.270;2023-05-19T17:07:46;99379.91;;;19.02;92.38
71059;BME280;70265;47.576;19.270;2023-05-19T17:08:50;99377.91;;;19.04;92.33
71059;BME280;70265;47.576;19.270;2023-05-19T17:09:51;99377.91;;;19.04;92.50
71059;BME280;70265;47.576;19.270;2023-05-19T17:10:55;99379.34;;;19.07;91.14
71059;BME280;70265;47.576;19.270;2023-05-19T17:11:56;99384.47;;;19.08;90.96
71059;BME280;70265;47.576;19.270;2023-05-19T17:13:03;99380.16;;;19.07;90.47
71059;BME280;70265;47.576;19.270;2023-05-19T17:14:04;99378.34;;;19.08;89.27
71059;BME280;70265;47.576;19.270;2023-05-19T17:15:12;99377.94;;;19.11;89.16
71059;BME280;70265;47.576;19.270;2023-05-19T17:16:19;99375.69;;;19.08;89.22
71059;BME280;70265;47.576;19.270;2023-05-19T17:17:21;99375.03;;;19.06;89.94
71059;BME280;70265;47.576;19.270;2023-05-19T17:18:24;99377.91;;;19.04;89.43
71059;BME280;70265;47.576;19.270;2023-05-19T17:19:26;99377.91;;;19.04;88.83
71059;BME280;70265;47.576;19.270;2023-05-19T17:20:29;99380.31;;;18.99;89.29
71059;BME280;70265;47.576;19.270;2023-05-19T17:21:30;99375.38;;;18.96;88.24
71059;BME280;70265;47.576;19.270;2023-05-19T17:22:34;99375.81;;;19.00;86.15
71059;BME280;70265;47.576;19.270;2023-05-19T17:23:36;99377.47;;;19.01;87.11
71059;BME280;70265;47.576;19.270;2023-05-19T17:24:40;99375.59;;;18.95;88.86
71059;BME280;70265;47.576;19.270;2023-05-19T17:25:41;99373.53;;;18.97;87.51
71059;BME280;70265;47.576;19.270;2023-05-19T17:26:44;99372.09;;;18.94;87.57
71059;BME280;70265;47.576;19.270;2023-05-19T17:27:45;99371.66;;;18.91;88.48
71059;BME280;70265;47.576;19.270;2023-05-19T17:28:52;99382.69;;;18.88;89.19
71059;BME280;70265;47.576;19.270;2023-05-19T17:29:53;99372.81;;;18.81;90.15
71059;BME280;70265;47.576;19.270;2023-05-19T17:30:57;99376.06;;;18.77;90.61
71059;BME280;70265;47.576;19.270;2023-05-19T17:32:01;99378.91;;;18.75;90.58
71059;BME280;70265;47.576;19.270;2023-05-19T17:33:04;99379.28;;;18.72;90.70
71059;BME280;70265;47.576;19.270;2023-05-19T17:34:05;99377.19;;;18.68;92.62
71059;BME280;70265;47.576;19.270;2023-05-19T17:35:09;99374.47;;;18.61;94.93
71059;BME280;70265;47.576;19.270;2023-05-19T17:36:11;99374.69;;;18.60;95.35
71059;BME280;70265;47.576;19.270;2023-05-19T17:37:15;99375.44;;;18.54;97.97
71059;BME280;70265;47.576;19.270;2023-05-19T17:38:18;99376.63;;;18.51;97.89
71059;BME280;70265;47.576;19.270;2023-05-19T17:39:22;99388.00;;;18.45;99.06
71059;BME280;70265;47.576;19.270;2023-05-19T17:40:27;99385.09;;;18.40;100.00
71059;BME280;70265;47.576;19.270;2023-05-19T17:41:31;99378.53;;;18.36;100.00
71059;BME280;70265;47.576;19.270;2023-05-19T17:42:34;99386.22;;;18.31;100.00
71059;BME280;70265;47.576;19.270;2023-05-19T17:43:36;99386.22;;;18.31;100.00
71059;BME280;70265;47.576;19.270;2023-05-19T17:44:43;99384.94;;;18.27;100.00
71059;BME280;70265;47.576;19.270;2023-05-19T17:45:52;99389.00;;;18.23;100.00
71059;BME280;70265;47.576;19.270;2023-05-19T17:46:56;99386.75;;;18.20;100.00
71059;BME280;70265;47.576;19.270;2023-05-19T17:48:00;99387.22;;;18.09;100.00
71059;BME280;70265;47.576;19.270;2023-05-19T17:49:05;99385.25;;;17.96;100.00
71059;BME280;70265;47.576;19.270;2023-05-19T17:50:07;99386.56;;;17.86;100.00
71059;BME280;70265;47.576;19.270;2023-05-19T17:51:11;99388.53;;;17.84;100.00
71059;BME280;70265;47.576;19.270;2023-05-19T17:52:13;99383.25;;;17.84;100.00
71059;BME280;70265;47.576;19.270;2023-05-19T17:53:19;99390.59;;;17.82;100.00
71059;BME280;70265;47.576;19.270;2023-05-19T17:54:24;99389.28;;;17.77;100.00
71059;BME280;70265;47.576;19.270;2023-05-19T17:55:27;99384.00;;;17.77;100.00
71059;BME280;70265;47.576;19.270;2023-05-19T17:56:32;99384.38;;;17.74;100.00
71059;BME280;70265;47.576;19.270;2023-05-19T17:57:43;99391.78;;;17.64;100.00
71059;BME280;70265;47.576;19.270;2023-05-19T17:58:52;99387.41;;;17.57;100.00
71059;BME280;70265;47.576;19.270;2023-05-19T17:59:57;99385.47;;;17.51;100.00
71059;BME280;70265;47.576;19.270;2023-05-19T18:01:02;99382.34;;;17.47;100.00
71059;BME280;70265;47.576;19.270;2023-05-19T18:02:05;99384.72;;;17.42;100.00
71059;BME280;70265;47.576;19.270;2023-05-19T18:03:10;99383.63;;;17.37;100.00
71059;BME280;70265;47.576;19.270;2023-05-19T18:04:14;99389.84;;;17.29;100.00
71059;BME280;70265;47.576;19.270;2023-05-19T18:05:16;99385.25;;;17.23;100.00
71059;BME280;70265;47.576;19.270;2023-05-19T18:06:22;99390.56;;;17.23;100.00
71059;BME280;70265;47.576;19.270;2023-05-19T18:07:27;99387.91;;;17.08;100.00
71059;BME280;70265;47.576;19.270;2023-05-19T18:08:31;99392.03;;;17.11;100.00
71059;BME280;70265;47.576;19.270;2023-05-19T18:09:34;99399.53;;;17.07;100.00
71059;BME280;70265;47.576;19.270;2023-05-19T18:10:40;99386.19;;;17.01;100.00
71059;BME280;70265;47.576;19.270;2023-05-19T18:11:41;99392.84;;;16.97;100.00
71059;BME280;70265;47.576;19.270;2023-05-19T18:12:45;99392.91;;;16.89;100.00
71059;BME280;70265;47.576;19.270;2023-05-19T18:13:46;99396.06;;;16.69;100.00
71059;BME280;70265;47.576;19.270;2023-05-19T18:14:50;99387.63;;;16.66;100.00
71059;BME280;70265;47.576;19.270;2023-05-19T18:15:54;99393.47;;;16.61;100.00
71059;BME280;70265;47.576;19.270;2023-05-19T18:16:59;99386.56;;;16.52;100.00
71059;BME280;70265;47.576;19.270;2023-05-19T18:18:03;99391.84;;;16.52;100.00
71059;BME280;70265;47.576;19.270;2023-05-19T18:19:06;99394.66;;;16.51;100.00
71059;BME280;70265;47.576;19.270;2023-05-19T18:20:11;99396.56;;;16.42;100.00
71059;BME280;70265;47.576;19.270;2023-05-19T18:21:12;99397.41;;;16.43;100.00
71059;BME280;70265;47.576;19.270;2023-05-19T18:22:18;99395.44;;;16.37;100.00
71059;BME280;70265;47.576;19.270;2023-05-19T18:23:20;99398.44;;;16.34;100.00
71059;BME280;70265;47.576;19.270;2023-05-19T18:24:24;99394.16;;;16.33;100.00
71059;BME280;70265;47.576;19.270;2023-05-19T18:25:25;99395.31;;;16.30;100.00
71059;BME280;70265;47.576;19.270;2023-05-19T18:26:29;99391.41;;;16.26;100.00
71059;BME280;70265;47.576;19.270;2023-05-19T18:27:30;99392.91;;;16.20;100.00
71059;BME280;70265;47.576;19.270;2023-05-19T18:28:34;99394.47;;;16.07;100.00
71059;BME280;70265;47.576;19.270;2023-05-19T18:29:35;99389.84;;;16.09;100.00
71059;BME280;70265;47.576;19.270;2023-05-19T18:30:40;99398.94;;;16.06;100.00
71059;BME280;70265;47.576;19.270;2023-05-19T18:31:43;99403.13;;;16.01;100.00
71059;BME280;70265;47.576;19.270;2023-05-19T18:32:47;99401.81;;;15.97;100.00
71059;BME280;70265;47.576;19.270;2023-05-19T18:33:48;99397.03;;;15.92;100.00
71059;BME280;70265;47.576;19.270;2023-05-19T18:34:52;99393.44;;;15.85;100.00
71059;BME280;70265;47.576;19.270;2023-05-19T18:35:57;99408.00;;;15.81;100.00
71059;BME280;70265;47.576;19.270;2023-05-19T18:37:01;99407.19;;;15.81;100.00
71059;BME280;70265;47.576;19.270;2023-05-19T18:38:04;99407.88;;;15.74;100.00
71059;BME280;70265;47.576;19.270;2023-05-19T18:39:05;99405.91;;;15.68;100.00
71059;BME280;70265;47.576;19.270;2023-05-19T18:40:10;99400.31;;;15.63;100.00
71059;BME280;70265;47.576;19.270;2023-05-19T18:41:11;99400.94;;;15.65;100.00
71059;BME280;70265;47.576;19.270;2023-05-19T18:42:14;99407.13;;;15.58;100.00
71059;BME280;70265;47.576;19.270;2023-05-19T18:43:16;99411.75;;;15.48;100.00
71059;BME280;70265;47.576;19.270;2023-05-19T18:44:19;99410.78;;;15.41;100.00
71059;BME280;70265;47.576;19.270;2023-05-19T18:45:20;99415.59;;;15.37;100.00
71059;BME280;70265;47.576;19.270;2023-05-19T18:46:24;99415.59;;;15.37;100.00
71059;BME280;70265;47.576;19.270;2023-05-19T18:47:28;99415.59;;;15.37;100.00
71059;BME280;70265;47.576;19.270;2023-05-19T18:48:32;99410.63;;;15.34;100.00
71059;BME280;70265;47.576;19.270;2023-05-19T18:49:33;99416.56;;;15.28;100.00
71059;BME280;70265;47.576;19.270;2023-05-19T18:50:37;99413.63;;;15.23;100.00
71059;BME280;70265;47.576;19.270;2023-05-19T18:51:38;99411.97;;;15.22;100.00
71059;BME280;70265;47.576;19.270;2023-05-19T18:52:42;99406.69;;;15.22;100.00
71059;BME280;70265;47.576;19.270;2023-05-19T18:53:45;99411.97;;;15.22;100.00
71059;BME280;70265;47.576;19.270;2023-05-19T18:54:48;99411.97;;;15.22;100.00
71059;BME280;70265;47.576;19.270;2023-05-19T18:55:52;99407.50;;;15.22;100.00
71059;BME280;70265;47.576;19.270;2023-05-19T18:56:54;99413.63;;;15.23;100.00
71059;BME280;70265;47.576;19.270;2023-05-19T18:57:57;99406.53;;;15.15;100.00
71059;BME280;70265;47.576;19.270;2023-05-19T18:59:01;99406.88;;;15.12;100.00
71059;BME280;70265;47.576;19.270;2023-05-19T19:00:10;99409.66;;;15.11;100.00
71059;BME280;70265;47.576;19.270;2023-05-19T19:01:13;99408.03;;;15.10;100.00
71059;BME280;70265;47.576;19.270;2023-05-19T19:02:16;99414.31;;;15.09;100.00
71059;BME280;70265;47.576;19.270;2023-05-19T19:03:23;99408.69;;;15.04;100.00
71059;BME280;70265;47.576;19.270;2023-05-19T19:04:24;99407.22;;;15.01;100.00
71059;BME280;70265;47.576;19.270;2023-05-19T19:05:28;99408.03;;;15.02;100.00
71059;BME280;70265;47.576;19.270;2023-05-19T19:06:30;99401.09;;;15.01;100.00
71059;BME280;70265;47.576;19.270;2023-05-19T19:07:33;99410.38;;;14.97;100.00
71059;BME280;70265;47.576;19.270;2023-05-19T19:08:38;99407.25;;;14.93;100.00
71059;BME280;70265;47.576;19.270;2023-05-19T19:09:42;99410.84;;;14.84;100.00
71059;BME280;70265;47.576;19.270;2023-05-19T19:10:47;99409.88;;;14.85;100.00
71059;BME280;70265;47.576;19.270;2023-05-19T19:11:49;99414.34;;;14.85;100.00
71059;BME280;70265;47.576;19.270;2023-05-19T19:12:53;99409.03;;;14.76;100.00
71059;BME280;70265;47.576;19.270;2023-05-19T19:13:54;99407.22;;;14.77;100.00
71059;BME280;70265;47.576;19.270;2023-05-19T19:14:58;99413.53;;;14.76;100.00
71059;BME280;70265;47.576;19.270;2023-05-19T19:15:59;99414.00;;;14.71;100.00
71059;BME280;70265;47.576;19.270;2023-05-19T19:17:03;99414.34;;;14.68;100.00
71059;BME280;70265;47.576;19.270;2023-05-19T19:18:04;99416.00;;;14.69;100.00
71059;BME280;70265;47.576;19.270;2023-05-19T19:19:10;99413.50;;;14.68;100.00
71059;BME280;70265;47.576;19.270;2023-05-19T19:20:22;99413.16;;;14.63;100.00
71059;BME280;70265;47.576;19.270;2023-05-19T19:21:25;99417.31;;;14.57;100.00
71059;BME280;70265;47.576;19.270;2023-05-19T19:22:27;99409.06;;;14.60;100.00
71059;BME280;70265;47.576;19.270;2023-05-19T19:23:31;99422.59;;;14.57;100.00
71059;BME280;70265;47.576;19.270;2023-05-19T19:24:32;99421.09;;;14.55;100.00
71059;BME280;70265;47.576;19.270;2023-05-19T19:25:36;99419.44;;;14.54;100.00
71059;BME280;70265;47.576;19.270;2023-05-19T19:26:37;99421.09;;;14.55;100.00
71059;BME280;70265;47.576;19.270;2023-05-19T19:27:40;99417.63;;;14.54;100.00
71059;BME280;70265;47.576;19.270;2023-05-19T19:28:42;99426.19;;;14.56;100.00
71059;BME280;70265;47.576;19.270;2023-05-19T19:29:46;99423.06;;;14.53;100.00
71059;BME280;70265;47.576;19.270;2023-05-19T19:30:47;99423.56;;;14.48;100.00
71059;BME280;70265;47.576;19.270;2023-05-19T19:31:51;99422.41;;;14.51;100.00
71059;BME280;70265;47.576;19.270;2023-05-19T19:32:55;99425.69;;;14.53;100.00
71059;BME280;70265;47.576;19.270;2023-05-19T19:33:56;99424.88;;;14.44;100.00
71059;BME280;70265;47.576;19.270;2023-05-19T19:35:07;99427.03;;;14.41;100.00
71059;BME280;70265;47.576;19.270;2023-05-19T19:36:11;99434.72;;;14.26;100.00
71059;BME280;70265;47.576;19.270;2023-05-19T19:37:14;99437.19;;;14.27;100.00
71059;BME280;70265;47.576;19.270;2023-05-19T19:38:16;99442.94;;;14.23;100.00
71059;BME280;70265;47.576;19.270;2023-05-19T19:39:19;99437.03;;;14.21;100.00
71059;BME280;70265;47.576;19.270;2023-05-19T19:40:21;99437.34;;;14.18;100.00
71059;BME280;70265;47.576;19.270;2023-05-19T19:41:24;99433.69;;;14.19;100.00
71059;BME280;70265;47.576;19.270;2023-05-19T19:42:30;99433.88;;;14.17;100.00
71059;BME280;70265;47.576;19.270;2023-05-19T19:43:34;99437.34;;;14.18;100.00
71059;BME280;70265;47.576;19.270;2023-05-19T19:44:35;99431.25;;;14.17;100.00
71059;BME280;70265;47.576;19.270;2023-05-19T19:45:38;99432.06;;;14.18;100.00
71059;BME280;70265;47.576;19.270;2023-05-19T19:46:41;99431.38;;;14.16;100.00
71059;BME280;70265;47.576;19.270;2023-05-19T19:47:44;99439.94;;;14.10;100.00
71059;BME280;70265;47.576;19.270;2023-05-19T19:48:46;99441.25;;;14.06;100.00
71059;BME280;70265;47.576;19.270;2023-05-19T19:50:06;99436.97;;;14.05;100.00
71059;BME280;70265;47.576;19.270;2023-05-19T19:51:11;99444.69;;;13.98;100.00
71059;BME280;70265;47.576;19.270;2023-05-19T19:52:15;99442.03;;;13.98;100.00
71059;BME280;70265;47.576;19.270;2023-05-19T19:53:19;99453.09;;;14.02;100.00
71059;BME280;70265;47.576;19.270;2023-05-19T19:54:20;99453.78;;;14.04;100.00
71059;BME280;70265;47.576;19.270;2023-05-19T19:55:24;99449.50;;;14.03;100.00
71059;BME280;70265;47.576;19.270;2023-05-19T19:56:25;99443.06;;;13.97;100.00
71059;BME280;70265;47.576;19.270;2023-05-19T19:57:29;99452.78;;;13.97;100.00
71059;BME280;70265;47.576;19.270;2023-05-19T19:58:31;99447.50;;;13.97;100.00
71059;BME280;70265;47.576;19.270;2023-05-19T19:59:34;99451.94;;;13.96;100.00
71059;BME280;70265;47.576;19.270;2023-05-19T20:00:38;99453.09;;;13.94;100.00
71059;BME280;70265;47.576;19.270;2023-05-19T20:01:39;99452.13;;;13.95;100.00
71059;BME280;70265;47.576;19.270;2023-05-19T20:02:43;99453.59;;;13.97;100.00
71059;BME280;70265;47.576;19.270;2023-05-19T20:03:44;99453.44;;;13.99;100.00
71059;BME280;70265;47.576;19.270;2023-05-19T20:04:48;99453.94;;;14.02;100.00
71059;BME280;70265;47.576;19.270;2023-05-19T20:05:55;99455.56;;;13.95;100.00
71059;BME280;70265;47.576;19.270;2023-05-19T20:06:56;99456.91;;;13.99;100.00
71059;BME280;70265;47.576;19.270;2023-05-19T20:08:00;99457.72;;;14.00;100.00
71059;BME280;70265;47.576;19.270;2023-05-19T20:09:04;99454.09;;;14.01;100.00
71059;BME280;70265;47.576;19.270;2023-05-19T20:10:12;99457.59;;;14.01;100.00
71059;BME280;70265;47.576;19.270;2023-05-19T20:11:16;99456.75;;;14.01;100.00
71059;BME280;70265;47.576;19.270;2023-05-19T20:12:22;99456.25;;;14.05;100.00
71059;BME280;70265;47.576;19.270;2023-05-19T20:13:28;99458.41;;;14.10;100.00
71059;BME280;70265;47.576;19.270;2023-05-19T20:14:35;99451.88;;;14.22;100.00
71059;BME280;70265;47.576;19.270;2023-05-19T20:15:38;99445.97;;;14.36;100.00
71059;BME280;70265;47.576;19.270;2023-05-19T20:16:43;99450.94;;;14.39;100.00
71059;BME280;70265;47.576;19.270;2023-05-19T20:17:47;99449.28;;;14.38;100.00
71059;BME280;70265;47.576;19.270;2023-05-19T20:18:50;99447.97;;;14.34;100.00
71059;BME280;70265;47.576;19.270;2023-05-19T20:19:54;99442.00;;;14.32;100.00
71059;BME280;70265;47.576;19.270;2023-05-19T20:20:58;99443.50;;;14.35;100.00
71059;BME280;70265;47.576;19.270;2023-05-19T20:22:02;99441.69;;;14.35;100.00
71059;BME280;70265;47.576;19.270;2023-05-19T20:23:03;99445.81;;;14.38;100.00
71059;BME280;70265;47.576;19.270;2023-05-19T20:24:07;99441.19;;;14.40;100.00
71059;BME280;70265;47.576;19.270;2023-05-19T20:25:09;99440.88;;;14.43;100.00
71059;BME280;70265;47.576;19.270;2023-05-19T20:26:13;99436.91;;;14.47;100.00
71059;BME280;70265;47.576;19.270;2023-05-19T20:27:17;99441.88;;;14.50;100.00
71059;BME280;70265;47.576;19.270;2023-05-19T20:28:18;99443.19;;;14.54;100.00
71059;BME280;70265;47.576;19.270;2023-05-19T20:29:22;99435.13;;;14.55;100.00
71059;BME280;70265;47.576;19.270;2023-05-19T20:30:23;99441.75;;;14.59;100.00
71059;BME280;70265;47.576;19.270;2023-05-19T20:31:32;99437.75;;;14.63;100.00
71059;BME280;70265;47.576;19.270;2023-05-19T20:32:33;99440.25;;;14.65;100.00
71059;BME280;70265;47.576;19.270;2023-05-19T20:33:37;99436.44;;;14.67;100.00
71059;BME280;70265;47.576;19.270;2023-05-19T20:34:38;99430.19;;;14.68;100.00
71059;BME280;70265;47.576;19.270;2023-05-19T20:35:42;99436.13;;;14.70;100.00
71059;BME280;70265;47.576;19.270;2023-05-19T20:36:48;99432.50;;;14.71;100.00
71059;BME280;70265;47.576;19.270;2023-05-19T20:37:50;99428.69;;;14.74;100.00
71059;BME280;70265;47.576;19.270;2023-05-19T20:38:54;99438.28;;;14.75;100.00
71059;BME280;70265;47.576;19.270;2023-05-19T20:39:58;99433.63;;;14.77;100.00
71059;BME280;70265;47.576;19.270;2023-05-19T20:40:59;99437.94;;;14.78;100.00
71059;BME280;70265;47.576;19.270;2023-05-19T20:42:04;99439.41;;;14.81;100.00
71059;BME280;70265;47.576;19.270;2023-05-19T20:43:08;99437.47;;;14.83;100.00
71059;BME280;70265;47.576;19.270;2023-05-19T20:44:12;99440.75;;;14.85;100.00
71059;BME280;70265;47.576;19.270;2023-05-19T20:45:16;99436.78;;;14.89;100.00
71059;BME280;70265;47.576;19.270;2023-05-19T20:46:17;99433.66;;;14.93;100.00
71059;BME280;70265;47.576;19.270;2023-05-19T20:47:21;99437.09;;;14.94;100.00
71059;BME280;70265;47.576;19.270;2023-05-19T20:48:25;99437.94;;;14.94;100.00
71059;BME280;70265;47.576;19.270;2023-05-19T20:49:26;99434.47;;;14.94;100.00
71059;BME280;70265;47.576;19.270;2023-05-19T20:50:30;99432.50;;;14.96;100.00
71059;BME280;70265;47.576;19.270;2023-05-19T20:51:31;99436.13;;;14.95;100.00
71059;BME280;70265;47.576;19.270;2023-05-19T20:52:38;99435.97;;;14.96;100.00
71059;BME280;70265;47.576;19.270;2023-05-19T20:53:39;99441.25;;;14.96;100.00
71059;BME280;70265;47.576;19.270;2023-05-19T20:54:43;99431.50;;;14.97;100.00
71059;BME280;70265;47.576;19.270;2023-05-19T20:55:44;99431.31;;;14.98;100.00
71059;BME280;70265;47.576;19.270;2023-05-19T20:56:49;99433.81;;;15.00;100.00
71059;BME280;70265;47.576;19.270;2023-05-19T20:57:51;99438.28;;;14.99;100.00
71059;BME280;70265;47.576;19.270;2023-05-19T20:58:54;99437.09;;;15.02;100.00
71059;BME280;70265;47.576;19.270;2023-05-19T20:59:56;99434.31;;;15.03;100.00
71059;BME280;70265;47.576;19.270;2023-05-19T21:01:00;99436.94;;;15.03;100.00
71059;BME280;70265;47.576;19.270;2023-05-19T21:02:01;99434.13;;;15.05;100.00
71059;BME280;70265;47.576;19.270;2023-05-19T21:03:05;99435.09;;;15.04;100.00
71059;BME280;70265;47.576;19.270;2023-05-19T21:04:09;99434.97;;;15.05;100.00
71059;BME280;70265;47.576;19.270;2023-05-19T21:05:10;99435.44;;;15.09;100.00
71059;BME280;70265;47.576;19.270;2023-05-19T21:06:14;99431.81;;;15.10;100.00
71059;BME280;70265;47.576;19.270;2023-05-19T21:07:15;99426.34;;;15.11;100.00
71059;BME280;70265;47.576;19.270;2023-05-19T21:08:22;99426.34;;;15.11;100.00